createdAt,value
2023-07-20T00:02:24.500Z,5.38
2023-07-20T00:04:55.753Z,6.97
2023-07-20T00:07:27.578Z,2.85
2023-07-20T00:12:29.630Z,4.97
2023-07-20T00:15:01.064Z,3.95
2023-07-20T00:17:32.504Z,3.55
2023-07-20T00:20:04.055Z,8.98
2023-07-20T00:22:35.252Z,7.32
2023-07-20T00:25:07.737Z,6.30
2023-07-20T00:27:38.979Z,4.13
2023-07-20T00:30:11.342Z,4.30
2023-07-20T00:32:43.421Z,4.40
2023-07-20T00:35:14.931Z,2.88
2023-07-20T00:37:46.427Z,3.00
2023-07-20T00:40:17.873Z,3.17
2023-07-20T00:42:49.180Z,6.78
2023-07-20T00:45:26.244Z,7.82
2023-07-20T00:50:31.493Z,8.75
2023-07-20T00:53:02.890Z,5.10
2023-07-20T00:55:34.906Z,4.07
2023-07-20T01:00:39.251Z,4.03
2023-07-20T01:03:10.797Z,7.95
2023-07-20T01:06:02.919Z,5.93
2023-07-20T01:08:45.877Z,10.25
2023-07-20T01:11:28.111Z,5.85
2023-07-20T01:13:59.345Z,7.30
2023-07-20T01:16:31.442Z,6.85
2023-07-20T01:19:02.789Z,5.03
2023-07-20T01:21:55.112Z,4.45
2023-07-20T01:24:55.568Z,3.00
2023-07-20T01:28:01.413Z,2.58
2023-07-20T01:30:43.024Z,2.28
2023-07-20T01:33:19.049Z,3.88
2023-07-20T01:35:56.731Z,3.40
2023-07-20T01:38:28.564Z,6.40
2023-07-20T01:41:00.610Z,3.97
2023-07-20T01:43:32.113Z,5.80
2023-07-20T01:46:03.686Z,7.18
2023-07-20T01:48:35.461Z,6.07
2023-07-20T01:51:07.111Z,3.95
2023-07-20T01:53:38.425Z,5.47
2023-07-20T01:56:09.762Z,2.28
2023-07-20T01:58:41.934Z,13.60
2023-07-20T02:01:13.222Z,6.03
2023-07-20T02:03:44.669Z,5.60
2023-07-20T02:06:15.786Z,6.72
2023-07-20T02:08:47.059Z,5.35
2023-07-20T02:11:18.260Z,5.65
2023-07-20T02:13:48.738Z,5.65
2023-07-20T02:16:18.863Z,5.68
2023-07-20T02:18:50.375Z,3.10
2023-07-20T02:21:20.893Z,4.43
2023-07-20T02:23:51.370Z,3.30
2023-07-20T02:26:21.749Z,3.60
2023-07-20T02:28:52.450Z,4.95
2023-07-20T02:31:22.628Z,5.03
2023-07-20T02:33:52.751Z,3.15
2023-07-20T02:36:22.846Z,3.40
2023-07-20T02:38:54.453Z,3.33
2023-07-20T02:41:24.525Z,3.95
2023-07-20T02:43:54.818Z,1.70
2023-07-20T02:46:25.556Z,3.75
2023-07-20T02:48:56.010Z,2.72
2023-07-20T02:51:26.199Z,5.63
2023-07-20T02:53:56.346Z,1.05
2023-07-20T02:56:26.475Z,5.40
2023-07-20T02:58:56.828Z,5.57
2023-07-20T03:01:27.094Z,5.80
2023-07-20T03:03:58.553Z,1.67
2023-07-20T03:06:28.776Z,1.70
2023-07-20T03:08:59.316Z,3.15
2023-07-20T03:11:29.387Z,2.72
2023-07-20T03:14:01.015Z,1.67
2023-07-20T03:16:35.050Z,1.52
2023-07-20T03:19:05.993Z,1.70
2023-07-20T03:21:36.143Z,11.82
2023-07-20T03:24:06.508Z,2.50
2023-07-20T03:26:36.907Z,1.40
2023-07-20T03:29:26.453Z,7.72
2023-07-20T03:31:56.736Z,1.30
2023-07-20T03:34:26.989Z,1.30
2023-07-20T03:36:57.175Z,5.13
2023-07-20T03:39:27.375Z,2.50
2023-07-20T03:41:57.470Z,1.05
2023-07-20T03:44:27.720Z,6.72
2023-07-20T03:46:57.798Z,1.45
2023-07-20T03:49:27.746Z,0.98
2023-07-20T03:51:57.977Z,1.02
2023-07-20T03:54:28.134Z,4.45
2023-07-20T03:56:58.235Z,4.15
2023-07-20T03:59:28.518Z,0.57
2023-07-20T04:01:58.686Z,3.95
2023-07-20T04:04:29.197Z,1.77
2023-07-20T04:06:59.344Z,8.95
2023-07-20T04:09:29.568Z,3.33
2023-07-20T04:11:59.716Z,3.00
2023-07-20T04:14:29.887Z,1.73
2023-07-20T04:17:00.026Z,1.85
2023-07-20T04:19:30.111Z,1.77
2023-07-20T04:22:00.440Z,2.92
2023-07-20T04:24:30.561Z,0.70
2023-07-20T04:27:00.732Z,6.50
2023-07-20T04:29:31.427Z,6.82
2023-07-20T04:32:01.671Z,4.15
2023-07-20T04:34:32.652Z,3.08
2023-07-20T04:37:02.886Z,3.08
2023-07-20T04:39:33.671Z,3.67
2023-07-20T04:42:09.213Z,3.75
2023-07-20T04:44:40.184Z,9.43
2023-07-20T04:47:11.385Z,10.48
2023-07-20T04:49:42.197Z,13.05
2023-07-20T04:52:12.319Z,23.15
2023-07-20T04:54:42.922Z,13.82
2023-07-20T04:57:15.552Z,11.10
2023-07-20T04:59:51.244Z,9.93
2023-07-20T05:02:21.625Z,8.52
2023-07-20T05:04:52.477Z,9.85
2023-07-20T05:07:22.581Z,6.90
2023-07-20T05:09:53.536Z,9.18
2023-07-20T05:12:23.720Z,8.07
2023-07-20T05:14:53.694Z,9.02
2023-07-20T05:17:23.622Z,4.28
2023-07-20T05:19:54.743Z,4.95
2023-07-20T05:22:26.696Z,6.38
2023-07-20T05:24:57.020Z,8.35
2023-07-20T05:27:27.182Z,5.25
2023-07-20T05:29:58.025Z,6.25
2023-07-20T05:32:28.300Z,4.75
2023-07-20T05:34:58.400Z,2.00
2023-07-20T05:37:28.570Z,1.83
2023-07-20T05:40:00.016Z,2.70
2023-07-20T05:42:30.114Z,5.57
2023-07-20T05:45:00.522Z,8.65
2023-07-20T05:47:31.380Z,8.32
2023-07-20T05:50:01.811Z,6.53
2023-07-20T05:52:31.745Z,12.63
2023-07-20T05:55:01.683Z,10.63
2023-07-20T05:57:31.533Z,6.80
2023-07-20T06:00:01.647Z,9.02
2023-07-20T06:02:42.179Z,6.07
2023-07-20T06:05:12.343Z,7.97
2023-07-20T06:07:42.564Z,12.45
2023-07-20T06:10:12.857Z,6.90
2023-07-20T06:12:44.187Z,14.13
2023-07-20T06:15:40.610Z,11.90
2023-07-20T06:18:10.787Z,11.80
2023-07-20T06:20:40.830Z,11.85
2023-07-20T06:23:10.832Z,5.53
2023-07-20T06:25:41.049Z,10.00
2023-07-20T06:28:11.132Z,6.95
2023-07-20T06:30:41.675Z,5.00
2023-07-20T06:33:11.859Z,9.13
2023-07-20T06:35:48.131Z,12.30
2023-07-20T06:40:51.067Z,8.18
2023-07-20T06:45:58.472Z,6.90
2023-07-20T06:48:28.653Z,9.73
2023-07-20T06:50:59.700Z,4.85
2023-07-20T06:53:29.789Z,6.45
2023-07-20T06:55:59.673Z,10.48
2023-07-20T06:58:29.572Z,7.90
2023-07-20T07:00:59.556Z,13.27
2023-07-20T07:03:29.696Z,12.75
2023-07-20T07:06:00.073Z,9.05
2023-07-20T07:08:30.063Z,7.82
2023-07-20T07:11:00.341Z,13.63
2023-07-20T07:13:30.470Z,9.40
2023-07-20T07:16:00.576Z,12.75
2023-07-20T07:18:31.431Z,9.35
2023-07-20T07:21:03.170Z,15.77
2023-07-20T07:23:33.724Z,12.55
2023-07-20T07:26:03.618Z,9.80
2023-07-20T07:28:34.199Z,14.25
2023-07-20T07:31:08.694Z,16.88
2023-07-20T07:33:38.929Z,9.00
2023-07-20T07:36:09.347Z,9.43
2023-07-20T07:39:15.418Z,15.15
2023-07-20T07:41:30.554Z,18.98
2023-07-20T07:44:00.468Z,8.48
2023-07-20T07:46:30.721Z,10.60
2023-07-20T07:49:01.038Z,8.25
2023-07-20T07:51:31.211Z,8.05
2023-07-20T07:54:01.850Z,12.68
2023-07-20T07:56:32.118Z,12.25
2023-07-20T07:59:02.016Z,13.50
2023-07-20T08:01:32.429Z,14.18
2023-07-20T08:04:03.035Z,12.93
2023-07-20T08:06:33.848Z,12.90
2023-07-20T08:09:04.369Z,23.80
2023-07-20T08:11:36.033Z,16.65
2023-07-20T08:14:06.227Z,10.80
2023-07-20T08:16:36.464Z,10.23
2023-07-20T08:19:06.811Z,15.05
2023-07-20T08:21:37.642Z,8.13
2023-07-20T08:24:07.822Z,11.90
2023-07-20T08:26:38.099Z,14.02
2023-07-20T08:29:08.221Z,13.30
2023-07-20T08:31:38.715Z,14.60
2023-07-20T08:34:20.274Z,8.60
2023-07-20T08:36:54.864Z,9.45
2023-07-20T08:39:25.455Z,15.35
2023-07-20T08:41:56.023Z,7.63
2023-07-20T08:44:29.581Z,9.00
2023-07-20T08:47:01.539Z,12.05
2023-07-20T08:49:38.727Z,12.77
2023-07-20T08:52:09.479Z,11.80
2023-07-20T08:54:39.886Z,15.07
2023-07-20T08:57:10.925Z,14.00
2023-07-20T08:59:41.779Z,11.57
2023-07-20T09:02:20.096Z,20.08
2023-07-20T09:04:51.134Z,14.05
2023-07-20T09:07:22.948Z,13.10
2023-07-20T09:09:53.302Z,13.70
2023-07-20T09:12:23.441Z,9.02
2023-07-20T09:14:53.539Z,8.48
2023-07-20T09:17:30.438Z,7.72
2023-07-20T09:20:01.123Z,11.98
2023-07-20T09:22:34.465Z,9.13
2023-07-20T09:25:04.739Z,8.95
2023-07-20T09:27:41.985Z,12.93
2023-07-20T09:30:18.982Z,7.63
2023-07-20T09:32:55.966Z,10.75
2023-07-20T09:35:27.602Z,9.80
2023-07-20T09:50:59.233Z,11.90
2023-07-20T09:53:30.919Z,14.30
2023-07-20T09:56:02.128Z,10.45
2023-07-20T09:58:34.565Z,10.10
2023-07-20T10:01:07.754Z,19.30
2023-07-20T10:03:41.096Z,9.85
2023-07-20T10:06:13.879Z,32.35
2023-07-20T10:11:19.757Z,26.25
2023-07-20T10:13:53.722Z,33.60
2023-07-20T10:16:37.099Z,42.55
2023-07-20T10:19:33.462Z,34.63
2023-07-20T10:22:10.379Z,28.60
2023-07-20T10:24:42.380Z,32.70
2023-07-20T10:29:43.180Z,37.00
2023-07-20T10:32:13.879Z,22.33
2023-07-20T10:34:44.269Z,30.10
2023-07-20T10:37:50.563Z,28.15
2023-07-20T10:40:40.365Z,28.52
2023-07-20T10:43:12.227Z,13.20
2023-07-20T10:46:01.531Z,6.60
2023-07-20T10:48:31.725Z,5.85
2023-07-20T10:51:23.727Z,10.10
2023-07-20T10:53:55.735Z,7.93
2023-07-20T10:56:28.748Z,10.93
2023-07-20T10:59:02.876Z,6.68
2023-07-20T11:01:34.241Z,14.05
2023-07-20T11:04:10.809Z,17.83
2023-07-20T11:06:45.690Z,15.57
2023-07-20T11:09:18.594Z,8.48
2023-07-20T11:11:50.732Z,9.50
2023-07-20T11:14:25.559Z,5.55
2023-07-20T11:16:57.735Z,6.47
2023-07-20T11:22:04.452Z,9.45
2023-07-20T11:24:35.102Z,11.27
2023-07-20T11:27:05.424Z,13.85
2023-07-20T11:29:35.522Z,6.85
2023-07-20T11:32:07.138Z,12.45
2023-07-20T11:34:38.371Z,11.35
2023-07-20T11:39:42.315Z,15.80
2023-07-20T11:42:12.805Z,13.40
2023-07-20T11:44:42.909Z,12.73
2023-07-20T11:47:14.328Z,10.40
2023-07-20T11:49:48.870Z,12.57
2023-07-20T11:52:19.934Z,13.00
2023-07-20T11:54:50.709Z,22.85
2023-07-20T11:57:21.891Z,15.50
2023-07-20T12:00:03.358Z,17.02
2023-07-20T12:02:35.666Z,19.35
2023-07-20T12:05:06.354Z,17.90
2023-07-20T12:07:39.350Z,23.05
2023-07-20T12:10:11.856Z,18.48
2023-07-20T12:12:46.862Z,17.75
2023-07-20T12:15:17.609Z,19.80
2023-07-20T12:17:48.951Z,25.30
2023-07-20T12:20:36.448Z,26.27
2023-07-20T12:23:14.935Z,35.15
2023-07-20T12:25:49.951Z,30.30
2023-07-20T12:28:22.183Z,33.60
2023-07-20T12:30:58.691Z,36.45
2023-07-20T12:33:28.812Z,33.75
2023-07-20T12:36:00.738Z,22.42
2023-07-20T12:38:31.288Z,35.35
2023-07-20T12:41:02.739Z,29.92
2023-07-20T12:43:34.337Z,29.02
2023-07-20T12:46:04.670Z,29.33
2023-07-20T12:48:35.460Z,28.05
2023-07-20T12:51:06.392Z,24.70
2023-07-20T12:53:36.776Z,21.42
2023-07-20T12:58:41.000Z,24.38
2023-07-20T13:01:11.361Z,20.13
2023-07-20T13:04:13.517Z,11.15
2023-07-20T13:06:31.568Z,18.40
2023-07-20T13:09:01.751Z,15.50
2023-07-20T13:11:31.881Z,15.10
2023-07-20T13:14:02.013Z,15.60
2023-07-20T13:16:32.019Z,9.63
2023-07-20T13:19:02.125Z,7.03
2023-07-20T13:21:32.210Z,7.95
2023-07-20T13:24:02.286Z,10.20
2023-07-20T13:26:32.440Z,9.90
2023-07-20T13:29:02.568Z,11.27
2023-07-20T13:31:33.540Z,10.52
2023-07-20T13:34:08.234Z,8.27
2023-07-20T13:36:38.601Z,8.35
2023-07-20T13:39:09.179Z,7.75
2023-07-20T13:41:40.027Z,6.07
2023-07-20T13:44:10.126Z,2.97
2023-07-20T13:46:44.730Z,5.45
2023-07-20T13:54:27.947Z,7.70
2023-07-20T13:56:58.630Z,5.53
2023-07-20T13:59:28.891Z,4.20
2023-07-20T14:04:32.676Z,4.18
2023-07-20T14:07:03.036Z,4.20
2023-07-20T14:09:33.286Z,3.35
2023-07-20T14:14:37.469Z,3.55
2023-07-20T14:17:07.806Z,6.03
2023-07-20T14:19:40.078Z,3.33
2023-07-20T14:39:53.143Z,2.85
2023-07-20T14:42:23.785Z,2.95
2023-07-20T14:44:53.822Z,2.97
2023-07-20T14:47:24.047Z,4.88
2023-07-20T14:49:54.276Z,2.35
2023-07-20T14:52:29.257Z,2.05
2023-07-20T14:54:59.783Z,2.25
2023-07-20T14:57:29.894Z,2.75
2023-07-20T14:59:59.991Z,2.13
2023-07-20T15:02:30.095Z,3.00
2023-07-20T15:05:00.277Z,1.80
2023-07-20T15:07:30.365Z,2.42
2023-07-20T15:10:00.475Z,1.92
2023-07-20T15:12:30.609Z,1.95
2023-07-20T15:15:10.637Z,3.88
2023-07-20T15:17:41.852Z,5.00
2023-07-20T15:20:14.278Z,1.40
2023-07-20T15:22:45.253Z,5.90
2023-07-20T15:25:17.238Z,2.80
2023-07-20T15:27:50.379Z,1.63
2023-07-20T15:35:27.532Z,1.65
2023-07-20T15:37:57.606Z,1.50
2023-07-20T15:40:28.047Z,1.67
2023-07-20T15:42:59.283Z,2.65
2023-07-20T15:45:32.361Z,1.90
2023-07-20T15:48:02.432Z,1.50
2023-07-20T15:50:32.538Z,1.75
2023-07-20T15:53:02.803Z,2.25
2023-07-20T15:55:32.894Z,1.23
2023-07-20T15:58:02.960Z,1.80
2023-07-20T16:00:33.123Z,3.38
2023-07-20T16:03:03.331Z,1.73
2023-07-20T16:05:33.502Z,2.05
2023-07-20T16:08:04.174Z,2.00
2023-07-20T16:10:35.351Z,2.13
2023-07-20T16:13:05.419Z,2.08
2023-07-20T16:18:08.995Z,4.70
2023-07-20T16:20:40.813Z,3.03
2023-07-20T16:23:10.846Z,1.50
2023-07-20T16:25:40.715Z,1.77
2023-07-20T16:28:12.088Z,3.42
2023-07-20T16:30:42.468Z,2.03
2023-07-20T16:33:12.404Z,1.48
2023-07-20T16:38:17.254Z,3.55
2023-07-20T16:44:05.907Z,2.40
2023-07-20T16:51:18.122Z,3.92
2023-07-20T16:53:48.250Z,5.78
2023-07-20T16:56:18.367Z,2.60
2023-07-20T16:58:48.907Z,3.20
2023-07-20T17:01:38.134Z,2.75
2023-07-20T17:04:08.288Z,4.13
2023-07-20T17:06:38.489Z,2.45
2023-07-20T17:09:08.656Z,3.65
2023-07-20T17:11:38.702Z,3.60
2023-07-20T17:14:08.526Z,2.83
2023-07-20T17:16:38.677Z,2.80
2023-07-20T17:19:11.310Z,3.35
2023-07-20T17:21:41.816Z,5.00
2023-07-20T17:24:12.804Z,2.72
2023-07-20T17:26:44.325Z,3.30
2023-07-20T17:29:14.719Z,3.05
2023-07-20T17:31:44.932Z,2.90
2023-07-20T17:34:15.049Z,3.25
2023-07-20T17:39:18.135Z,8.30
2023-07-20T17:41:48.456Z,3.08
2023-07-20T17:44:19.262Z,3.35
2023-07-20T17:49:22.843Z,3.25
2023-07-20T17:51:52.964Z,2.83
2023-07-20T17:54:23.022Z,2.25
2023-07-20T17:56:53.154Z,3.75
2023-07-20T17:59:23.360Z,3.13
2023-07-20T18:01:53.956Z,5.70
2023-07-20T18:04:24.049Z,3.13
2023-07-20T18:06:54.287Z,3.20
2023-07-20T18:09:24.394Z,4.15
2023-07-20T18:11:54.518Z,3.22
2023-07-20T18:14:24.593Z,3.78
2023-07-20T18:16:54.463Z,6.22
2023-07-20T18:19:24.506Z,2.92
2023-07-20T18:21:54.635Z,5.78
2023-07-20T18:24:24.522Z,1.98
2023-07-20T18:26:55.231Z,3.28
2023-07-20T18:29:26.034Z,3.50
2023-07-20T18:31:56.271Z,4.00
2023-07-20T18:34:26.355Z,3.08
2023-07-20T18:36:56.416Z,3.58
2023-07-20T18:39:26.519Z,3.28
2023-07-20T18:41:56.895Z,4.18
2023-07-20T18:44:28.005Z,6.20
2023-07-20T18:46:58.427Z,3.17
2023-07-20T18:49:28.788Z,3.50
2023-07-20T18:51:59.368Z,3.13
2023-07-20T18:54:29.601Z,3.45
2023-07-20T18:57:00.081Z,4.82
2023-07-20T18:59:30.198Z,7.80
2023-07-20T19:02:00.366Z,3.50
2023-07-20T19:04:30.528Z,3.42
2023-07-20T19:07:00.683Z,2.92
2023-07-20T19:09:30.788Z,4.35
2023-07-20T19:12:00.648Z,5.22
2023-07-20T19:14:30.818Z,3.22
2023-07-20T19:17:00.693Z,5.47
2023-07-20T19:19:33.405Z,3.40
2023-07-20T19:22:03.534Z,5.43
2023-07-20T19:24:33.418Z,7.03
2023-07-20T19:27:04.449Z,5.90
2023-07-20T19:29:34.463Z,3.38
2023-07-20T19:32:04.426Z,2.40
2023-07-20T19:34:35.212Z,2.38
2023-07-20T19:37:06.008Z,5.57
2023-07-20T19:39:36.081Z,6.20
2023-07-20T19:42:06.740Z,3.05
2023-07-20T19:44:36.770Z,6.25
2023-07-20T19:47:07.026Z,2.13
2023-07-20T19:49:37.137Z,2.85
2023-07-20T19:52:07.359Z,1.77
2023-07-20T19:54:37.452Z,2.67
2023-07-20T19:57:39.981Z,2.83
2023-07-20T19:59:58.153Z,1.90
2023-07-20T20:03:40.846Z,4.45
2023-07-20T20:05:18.519Z,3.55
2023-07-20T20:07:48.769Z,2.70
2023-07-20T20:10:18.978Z,2.80
2023-07-20T20:15:20.282Z,4.05
2023-07-20T20:17:51.494Z,5.95
2023-07-20T20:20:21.917Z,11.23
2023-07-20T20:22:52.102Z,8.02
2023-07-20T20:25:22.152Z,4.35
2023-07-20T20:27:52.378Z,6.35
2023-07-20T20:30:26.106Z,7.65
2023-07-20T20:32:56.769Z,7.35
2023-07-20T20:35:27.521Z,4.45
2023-07-20T20:37:57.866Z,11.52
2023-07-20T20:40:29.065Z,5.68
2023-07-20T20:42:59.521Z,3.42
2023-07-20T20:45:29.996Z,5.72
2023-07-20T20:48:01.475Z,6.55
2023-07-20T20:50:31.621Z,5.88
2023-07-20T20:53:01.860Z,7.70
2023-07-20T20:55:32.440Z,5.57
2023-07-20T20:58:02.693Z,8.07
2023-07-20T21:00:33.356Z,8.57
2023-07-20T21:03:04.010Z,6.40
2023-07-20T21:05:39.011Z,7.90
2023-07-20T21:08:09.564Z,6.53
2023-07-20T21:10:39.961Z,9.77
2023-07-20T21:13:16.006Z,13.85
2023-07-20T21:15:46.203Z,8.52
2023-07-20T21:18:16.349Z,6.13
2023-07-20T21:20:46.863Z,9.23
2023-07-20T21:23:36.888Z,5.78
2023-07-20T21:26:07.049Z,5.45
2023-07-20T21:28:37.253Z,4.97
2023-07-20T21:31:09.769Z,5.32
2023-07-20T21:33:40.080Z,4.13
2023-07-20T21:36:10.565Z,10.02
2023-07-20T21:38:40.913Z,7.10
2023-07-20T21:41:11.561Z,6.13
2023-07-20T21:43:41.809Z,8.27
2023-07-20T21:46:11.926Z,5.97
2023-07-20T21:48:44.522Z,6.93
2023-07-20T21:51:14.674Z,4.55
2023-07-20T21:53:44.520Z,8.98
2023-07-20T21:56:14.619Z,6.80
2023-07-20T21:58:44.528Z,5.03
2023-07-20T22:01:44.184Z,4.82
2023-07-20T22:04:05.022Z,6.32
2023-07-20T22:06:35.216Z,6.38
2023-07-20T22:09:05.341Z,4.57
2023-07-20T22:11:35.389Z,5.88
2023-07-20T22:14:05.592Z,8.85
2023-07-20T22:16:35.819Z,11.40
2023-07-20T22:19:05.991Z,6.05
2023-07-20T22:21:36.041Z,5.40
2023-07-20T22:24:06.450Z,5.50
2023-07-20T22:26:36.561Z,5.35
2023-07-20T22:29:06.819Z,4.60
2023-07-20T22:31:37.124Z,7.72
2023-07-20T22:34:07.300Z,11.43
2023-07-20T22:36:37.388Z,14.30
2023-07-20T22:39:08.026Z,13.15
2023-07-20T22:41:38.265Z,13.90
2023-07-20T22:44:08.905Z,10.43
2023-07-20T22:46:39.167Z,14.38
2023-07-20T22:49:09.496Z,14.35
2023-07-20T22:51:40.017Z,9.02
2023-07-20T22:54:12.826Z,11.73
2023-07-20T22:59:12.907Z,7.45
2023-07-20T23:01:46.239Z,9.63
2023-07-20T23:04:16.639Z,8.38
2023-07-20T23:06:46.879Z,10.75
2023-07-20T23:09:17.441Z,7.75
2023-07-20T23:11:48.001Z,5.78
2023-07-20T23:14:18.755Z,6.78
2023-07-20T23:16:49.011Z,7.45
2023-07-20T23:19:19.225Z,10.82
2023-07-20T23:21:50.895Z,13.85
2023-07-20T23:24:21.933Z,9.38
2023-07-20T23:26:55.649Z,12.43
2023-07-20T23:29:26.678Z,16.30
2023-07-20T23:31:57.640Z,24.90
2023-07-20T23:34:28.782Z,18.17
2023-07-20T23:36:59.671Z,19.92
2023-07-20T23:39:30.552Z,23.63
2023-07-20T23:42:04.288Z,29.58
2023-07-20T23:44:35.532Z,20.80
2023-07-20T23:47:08.032Z,21.92
2023-07-20T23:49:39.432Z,24.10
2023-07-20T23:52:10.887Z,24.52
2023-07-20T23:57:13.014Z,13.50
2023-07-20T23:59:44.525Z,15.75
